createdAt,value
2019-05-18T00:00:08.018Z,1003.90
2019-05-18T00:01:07.979Z,1003.84
2019-05-18T00:02:07.945Z,1003.86
2019-05-18T00:03:07.971Z,1003.86
2019-05-18T00:04:07.943Z,1003.86
2019-05-18T00:05:07.914Z,1003.87
2019-05-18T00:06:07.951Z,1003.85
2019-05-18T00:07:07.921Z,1003.81
2019-05-18T00:08:07.906Z,1003.82
2019-05-18T00:09:07.869Z,1003.81
2019-05-18T00:10:07.859Z,1003.76
2019-05-18T00:11:07.885Z,1003.78
2019-05-18T00:12:07.839Z,1003.78
2019-05-18T00:13:07.834Z,1003.76
2019-05-18T00:14:07.816Z,1003.78
2019-05-18T00:15:07.807Z,1003.78
2019-05-18T00:16:07.799Z,1003.80
2019-05-18T00:17:17.320Z,1003.76
2019-05-18T00:18:08.784Z,1003.75
2019-05-18T00:19:07.766Z,1003.79
2019-05-18T00:20:07.755Z,1003.77
2019-05-18T00:21:07.746Z,1003.76
2019-05-18T00:22:07.766Z,1003.76
2019-05-18T00:23:07.718Z,1003.79
2019-05-18T00:24:07.719Z,1003.79
2019-05-18T00:25:07.701Z,1003.82
2019-05-18T00:26:07.694Z,1003.80
2019-05-18T00:27:07.713Z,1003.79
2019-05-18T00:28:07.670Z,1003.83
2019-05-18T00:29:07.650Z,1003.81
2019-05-18T00:30:07.660Z,1003.81
2019-05-18T00:31:07.634Z,1003.77
2019-05-18T00:32:07.623Z,1003.77
2019-05-18T00:33:07.640Z,1003.77
2019-05-18T00:34:07.599Z,1003.80
2019-05-18T00:35:07.585Z,1003.84
2019-05-18T00:36:07.583Z,1003.85
2019-05-18T00:37:07.571Z,1003.84
2019-05-18T00:38:07.587Z,1003.84
2019-05-18T00:39:07.578Z,1003.82
2019-05-18T00:40:07.533Z,1003.79
2019-05-18T00:41:07.558Z,1003.81
2019-05-18T00:42:07.539Z,1003.81
2019-05-18T00:43:07.737Z,1003.83
2019-05-18T00:44:07.527Z,1003.81
2019-05-18T00:45:07.558Z,1003.79
2019-05-18T00:46:07.469Z,1003.79
2019-05-18T00:47:07.509Z,1003.75
2019-05-18T00:48:07.456Z,1003.77
2019-05-18T00:49:07.472Z,1003.73
2019-05-18T00:50:07.445Z,1003.73
2019-05-18T00:51:07.422Z,1003.76
2019-05-18T00:52:07.401Z,1003.73
2019-05-18T00:53:07.393Z,1003.73
2019-05-18T00:54:07.380Z,1003.73
2019-05-18T00:55:07.421Z,1003.76
2019-05-18T00:56:07.367Z,1003.74
2019-05-18T00:57:07.369Z,1003.75
2019-05-18T00:58:07.342Z,1003.79
2019-05-18T00:59:07.353Z,1003.77
2019-05-18T01:00:07.350Z,1003.77
2019-05-18T01:01:07.305Z,1003.77
2019-05-18T01:02:07.305Z,1003.75
2019-05-18T01:03:07.291Z,1003.72
2019-05-18T01:04:07.349Z,1003.74
2019-05-18T01:05:07.338Z,1003.73
2019-05-18T01:06:07.274Z,1003.73
2019-05-18T01:07:07.242Z,1003.77
2019-05-18T01:08:07.237Z,1003.77
2019-05-18T01:09:07.259Z,1003.74
2019-05-18T01:10:07.266Z,1003.75
2019-05-18T01:11:07.206Z,1003.75
2019-05-18T01:12:07.187Z,1003.74
2019-05-18T01:13:07.176Z,1003.75
2019-05-18T01:14:07.197Z,1003.74
2019-05-18T01:15:07.161Z,1003.73
2019-05-18T01:16:07.149Z,1003.76
2019-05-18T01:17:07.159Z,1003.77
2019-05-18T01:18:07.122Z,1003.75
2019-05-18T01:19:07.227Z,1003.76
2019-05-18T01:20:07.162Z,1003.74
2019-05-18T01:21:07.148Z,1003.77
2019-05-18T01:22:07.128Z,1003.78
2019-05-18T01:23:07.137Z,1003.76
2019-05-18T01:24:07.168Z,1003.71
2019-05-18T01:25:07.059Z,1003.69
2019-05-18T01:26:07.179Z,1003.65
2019-05-18T01:27:07.074Z,1003.66
2019-05-18T01:28:07.088Z,1003.66
2019-05-18T01:29:07.117Z,1003.69
2019-05-18T01:30:07.056Z,1003.64
2019-05-18T01:31:07.102Z,1003.62
2019-05-18T01:32:07.028Z,1003.64
2019-05-18T01:33:07.095Z,1003.61
2019-05-18T01:34:07.072Z,1003.59
2019-05-18T01:35:07.018Z,1003.61
2019-05-18T01:36:06.988Z,1003.60
2019-05-18T01:37:07.005Z,1003.61
2019-05-18T01:38:07.032Z,1003.66
2019-05-18T01:39:07.007Z,1003.68
2019-05-18T01:40:06.976Z,1003.73
2019-05-18T01:41:06.930Z,1003.70
2019-05-18T01:42:06.933Z,1003.72
2019-05-18T01:43:06.911Z,1003.75
2019-05-18T01:44:06.956Z,1003.74
2019-05-18T01:45:16.476Z,1003.75
2019-05-18T01:46:07.855Z,1003.77
2019-05-18T01:47:06.845Z,1003.72
2019-05-18T01:48:14.220Z,1003.79
2019-05-18T01:49:07.918Z,1003.81
2019-05-18T01:50:06.828Z,1003.77
2019-05-18T01:51:06.818Z,1003.78
2019-05-18T01:52:06.818Z,1003.81
2019-05-18T01:53:06.810Z,1003.75
2019-05-18T01:54:06.799Z,1003.75
2019-05-18T01:55:06.830Z,1003.75
2019-05-18T01:56:06.763Z,1003.75
2019-05-18T01:57:06.793Z,1003.75
2019-05-18T01:58:06.770Z,1003.72
2019-05-18T01:59:06.803Z,1003.75
2019-05-18T02:00:06.819Z,1003.78
2019-05-18T02:01:06.723Z,1003.74
2019-05-18T02:02:06.704Z,1003.74
2019-05-18T02:03:06.696Z,1003.71
2019-05-18T02:04:06.740Z,1003.71
2019-05-18T02:05:06.655Z,1003.73
2019-05-18T02:06:06.642Z,1003.74
2019-05-18T02:07:06.633Z,1003.72
2019-05-18T02:08:06.636Z,1003.73
2019-05-18T02:09:06.680Z,1003.72
2019-05-18T02:10:06.601Z,1003.68
2019-05-18T02:11:06.600Z,1003.71
2019-05-18T02:12:06.589Z,1003.70
2019-05-18T02:13:06.790Z,1003.73
2019-05-18T02:14:06.603Z,1003.70
2019-05-18T02:15:06.557Z,1003.68
2019-05-18T02:16:06.487Z,1003.69
2019-05-18T02:17:06.494Z,1003.71
2019-05-18T02:18:06.464Z,1003.74
2019-05-18T02:19:06.485Z,1003.76
2019-05-18T02:20:06.453Z,1003.75
2019-05-18T02:21:06.436Z,1003.68
2019-05-18T02:22:06.429Z,1003.72
2019-05-18T02:23:06.412Z,1003.72
2019-05-18T02:24:06.463Z,1003.76
2019-05-18T02:25:06.402Z,1003.75
2019-05-18T02:26:06.383Z,1003.77
2019-05-18T02:27:06.375Z,1003.76
2019-05-18T02:28:06.358Z,1003.75
2019-05-18T02:29:06.382Z,1003.79
2019-05-18T02:30:06.355Z,1003.74
2019-05-18T02:31:06.325Z,1003.75
2019-05-18T02:32:06.317Z,1003.76
2019-05-18T02:33:06.326Z,1003.75
2019-05-18T02:34:06.335Z,1003.71
2019-05-18T02:35:06.320Z,1003.71
2019-05-18T02:36:06.269Z,1003.71
2019-05-18T02:37:06.259Z,1003.72
2019-05-18T02:38:06.254Z,1003.70
2019-05-18T02:39:06.271Z,1003.72
2019-05-18T02:40:06.258Z,1003.73
2019-05-18T02:41:06.215Z,1003.75
2019-05-18T02:42:06.211Z,1003.67
2019-05-18T02:43:06.195Z,1003.72
2019-05-18T02:44:06.189Z,1003.67
2019-05-18T02:45:06.212Z,1003.61
2019-05-18T02:46:06.166Z,1003.64
2019-05-18T02:47:06.155Z,1003.64
2019-05-18T02:48:06.147Z,1003.62
2019-05-18T02:49:06.133Z,1003.61
2019-05-18T02:50:06.159Z,1003.60
2019-05-18T02:51:06.108Z,1003.56
2019-05-18T02:52:06.105Z,1003.57
2019-05-18T02:53:06.098Z,1003.53
2019-05-18T02:54:06.075Z,1003.58
2019-05-18T02:55:06.098Z,1003.57
2019-05-18T02:56:06.057Z,1003.56
2019-05-18T02:57:06.046Z,1003.52
2019-05-18T02:58:06.080Z,1003.53
2019-05-18T02:59:06.027Z,1003.48
2019-05-18T03:00:06.017Z,1003.51
2019-05-18T03:01:06.004Z,1003.51
2019-05-18T03:02:05.991Z,1003.51
2019-05-18T03:03:05.979Z,1003.55
2019-05-18T03:04:06.017Z,1003.52
2019-05-18T03:05:05.983Z,1003.59
2019-05-18T03:06:05.979Z,1003.57
2019-05-18T03:07:05.951Z,1003.53
2019-05-18T03:08:05.925Z,1003.60
2019-05-18T03:09:05.932Z,1003.58
2019-05-18T03:10:05.940Z,1003.66
2019-05-18T03:11:05.930Z,1003.60
2019-05-18T03:12:05.903Z,1003.67
2019-05-18T03:13:05.870Z,1003.66
2019-05-18T03:14:06.330Z,1003.66
2019-05-18T03:15:05.880Z,1003.71
2019-05-18T03:16:05.847Z,1003.69
2019-05-18T03:17:05.839Z,1003.71
2019-05-18T03:18:05.819Z,1003.70
2019-05-18T03:19:08.622Z,1003.72
2019-05-18T03:20:05.825Z,1003.73
2019-05-18T03:21:05.784Z,1003.75
2019-05-18T03:22:05.772Z,1003.77
2019-05-18T03:23:05.774Z,1003.72
2019-05-18T03:24:05.781Z,1003.74
2019-05-18T03:25:05.811Z,1003.72
2019-05-18T03:26:05.743Z,1003.74
2019-05-18T03:27:05.720Z,1003.76
2019-05-18T03:28:05.763Z,1003.81
2019-05-18T03:29:05.701Z,1003.76
2019-05-18T03:30:05.735Z,1003.76
2019-05-18T03:31:05.706Z,1003.78
2019-05-18T03:32:05.664Z,1003.78
2019-05-18T03:33:05.703Z,1003.79
2019-05-18T03:34:05.661Z,1003.77
2019-05-18T03:35:05.673Z,1003.74
2019-05-18T03:36:05.629Z,1003.71
2019-05-18T03:37:05.614Z,1003.75
2019-05-18T03:38:05.602Z,1003.74
2019-05-18T03:39:05.594Z,1003.72
2019-05-18T03:40:05.608Z,1003.66
2019-05-18T03:41:05.565Z,1003.69
2019-05-18T03:42:05.560Z,1003.68
2019-05-18T03:43:05.553Z,1003.75
2019-05-18T03:44:05.531Z,1003.68
2019-05-18T03:45:05.552Z,1003.67
2019-05-18T03:46:05.517Z,1003.66
2019-05-18T03:47:05.502Z,1003.69
2019-05-18T03:48:05.501Z,1003.63
2019-05-18T03:49:05.484Z,1003.71
2019-05-18T03:50:06.260Z,1003.71
2019-05-18T03:51:05.463Z,1003.71
2019-05-18T03:52:05.445Z,1003.73
2019-05-18T03:53:05.448Z,1003.72
2019-05-18T03:54:05.425Z,1003.72
2019-05-18T03:55:05.452Z,1003.70
2019-05-18T03:56:05.409Z,1003.65
2019-05-18T03:57:05.430Z,1003.67
2019-05-18T03:58:05.380Z,1003.62
2019-05-18T03:59:05.390Z,1003.64
2019-05-18T04:00:05.398Z,1003.69
2019-05-18T04:01:05.359Z,1003.58
2019-05-18T04:02:05.343Z,1003.65
2019-05-18T04:03:05.337Z,1003.61
2019-05-18T04:04:05.320Z,1003.63
2019-05-18T04:05:05.368Z,1003.59
2019-05-18T04:06:05.294Z,1003.60
2019-05-18T04:07:05.286Z,1003.59
2019-05-18T04:08:05.284Z,1003.68
2019-05-18T04:09:06.250Z,1003.65
2019-05-18T04:10:05.291Z,1003.66
2019-05-18T04:11:05.281Z,1003.66
2019-05-18T04:12:05.286Z,1003.65
2019-05-18T04:13:05.252Z,1003.60
2019-05-18T04:14:08.187Z,1003.62
2019-05-18T04:15:05.203Z,1003.57
2019-05-18T04:16:05.242Z,1003.56
2019-05-18T04:17:05.179Z,1003.56
2019-05-18T04:18:05.193Z,1003.55
2019-05-18T04:19:05.154Z,1003.52
2019-05-18T04:20:05.162Z,1003.56
2019-05-18T04:21:05.180Z,1003.54
2019-05-18T04:22:05.127Z,1003.54
2019-05-18T04:23:05.116Z,1003.53
2019-05-18T04:24:05.135Z,1003.52
2019-05-18T04:25:05.093Z,1003.53
2019-05-18T04:26:05.119Z,1003.52
2019-05-18T04:27:05.066Z,1003.53
2019-05-18T04:28:05.063Z,1003.50
2019-05-18T04:29:05.051Z,1003.51
2019-05-18T04:30:05.041Z,1003.50
2019-05-18T04:31:05.058Z,1003.51
2019-05-18T04:32:05.020Z,1003.52
2019-05-18T04:33:05.033Z,1003.50
2019-05-18T04:34:04.997Z,1003.54
2019-05-18T04:35:04.986Z,1003.48
2019-05-18T04:36:05.016Z,1003.50
2019-05-18T04:37:04.957Z,1003.47
2019-05-18T04:38:04.946Z,1003.52
2019-05-18T04:39:04.945Z,1003.53
2019-05-18T04:40:04.936Z,1003.54
2019-05-18T04:41:04.960Z,1003.54
2019-05-18T04:42:04.913Z,1003.53
2019-05-18T04:43:04.912Z,1003.55
2019-05-18T04:44:04.881Z,1003.55
2019-05-18T04:45:04.903Z,1003.51
2019-05-18T04:46:04.865Z,1003.52
2019-05-18T04:47:04.854Z,1003.55
2019-05-18T04:48:04.836Z,1003.53
2019-05-18T04:49:04.825Z,1003.53
2019-05-18T04:50:06.234Z,1003.59
2019-05-18T04:51:04.810Z,1003.56
2019-05-18T04:52:04.798Z,1003.59
2019-05-18T04:53:04.790Z,1003.54
2019-05-18T04:54:04.776Z,1003.54
2019-05-18T04:55:04.799Z,1003.58
2019-05-18T04:56:04.752Z,1003.54
2019-05-18T04:57:04.739Z,1003.56
2019-05-18T04:58:04.732Z,1003.56
2019-05-18T04:59:04.735Z,1003.60
2019-05-18T05:00:04.710Z,1003.55
2019-05-18T05:01:04.732Z,1003.54
2019-05-18T05:02:04.716Z,1003.60
2019-05-18T05:03:04.674Z,1003.57
2019-05-18T05:04:04.682Z,1003.55
2019-05-18T05:05:04.661Z,1003.54
2019-05-18T05:06:04.682Z,1003.54
2019-05-18T05:07:04.635Z,1003.56
2019-05-18T05:08:04.621Z,1003.53
2019-05-18T05:09:04.609Z,1003.56
2019-05-18T05:10:04.847Z,1003.56
2019-05-18T05:11:04.624Z,1003.53
2019-05-18T05:12:04.579Z,1003.56
2019-05-18T05:13:04.569Z,1003.56
2019-05-18T05:14:04.562Z,1003.59
2019-05-18T05:15:04.550Z,1003.56
2019-05-18T05:16:04.564Z,1003.58
2019-05-18T05:17:04.523Z,1003.56
2019-05-18T05:18:04.516Z,1003.53
2019-05-18T05:19:04.510Z,1003.53
2019-05-18T05:20:18.308Z,1003.51
2019-05-18T05:21:05.514Z,1003.54
2019-05-18T05:22:04.467Z,1003.50
2019-05-18T05:23:04.462Z,1003.50
2019-05-18T05:24:04.456Z,1003.53
2019-05-18T05:25:04.452Z,1003.52
2019-05-18T05:26:04.465Z,1003.49
2019-05-18T05:27:04.423Z,1003.52
2019-05-18T05:28:04.404Z,1003.52
2019-05-18T05:29:04.395Z,1003.50
2019-05-18T05:30:04.382Z,1003.49
2019-05-18T05:31:04.416Z,1003.51
2019-05-18T05:32:04.374Z,1003.49
2019-05-18T05:33:04.368Z,1003.52
2019-05-18T05:34:04.372Z,1003.53
2019-05-18T05:35:04.353Z,1003.59
2019-05-18T05:36:04.325Z,1003.53
2019-05-18T05:37:04.371Z,1003.54
2019-05-18T05:38:04.302Z,1003.56
2019-05-18T05:39:04.293Z,1003.55
2019-05-18T05:40:04.365Z,1003.57
2019-05-18T05:41:04.274Z,1003.56
2019-05-18T05:42:04.306Z,1003.52
2019-05-18T05:43:04.267Z,1003.56
2019-05-18T05:44:04.244Z,1003.56
2019-05-18T05:45:04.249Z,1003.58
2019-05-18T05:46:04.271Z,1003.56
2019-05-18T05:47:04.207Z,1003.60
2019-05-18T05:48:04.190Z,1003.63
2019-05-18T05:49:04.179Z,1003.57
2019-05-18T05:50:04.175Z,1003.64
2019-05-18T05:51:04.198Z,1003.62
2019-05-18T05:52:04.227Z,1003.70
2019-05-18T05:53:04.143Z,1003.68
2019-05-18T05:54:04.125Z,1003.62
2019-05-18T05:55:04.121Z,1003.61
2019-05-18T05:56:04.167Z,1003.63
2019-05-18T05:57:04.130Z,1003.63
2019-05-18T05:58:04.092Z,1003.65
2019-05-18T05:59:04.077Z,1003.65
2019-05-18T06:00:04.065Z,1003.69
2019-05-18T06:01:04.082Z,1003.70
2019-05-18T06:02:04.040Z,1003.65
2019-05-18T06:03:04.035Z,1003.67
2019-05-18T06:04:04.022Z,1003.66
2019-05-18T06:05:04.014Z,1003.64
2019-05-18T06:06:03.996Z,1003.67
2019-05-18T06:07:04.007Z,1003.65
2019-05-18T06:08:03.981Z,1003.69
2019-05-18T06:09:03.974Z,1003.68
2019-05-18T06:10:03.961Z,1003.74
2019-05-18T06:11:03.951Z,1003.75
2019-05-18T06:12:03.974Z,1003.73
2019-05-18T06:13:03.922Z,1003.72
2019-05-18T06:14:03.911Z,1003.75
2019-05-18T06:15:03.913Z,1003.76
2019-05-18T06:16:03.894Z,1003.73
2019-05-18T06:17:03.945Z,1003.76
2019-05-18T06:18:03.874Z,1003.73
2019-05-18T06:19:03.863Z,1003.74
2019-05-18T06:20:03.847Z,1003.73
2019-05-18T06:21:03.836Z,1003.76
2019-05-18T06:22:03.862Z,1003.79
2019-05-18T06:23:03.822Z,1003.77
2019-05-18T06:24:03.807Z,1003.74
2019-05-18T06:25:05.211Z,1003.73
2019-05-18T06:26:03.782Z,1003.72
2019-05-18T06:27:03.802Z,1003.73
2019-05-18T06:28:03.783Z,1003.72
2019-05-18T06:29:03.902Z,1003.69
2019-05-18T06:30:03.772Z,1003.75
2019-05-18T06:31:03.778Z,1003.71
2019-05-18T06:32:03.720Z,1003.75
2019-05-18T06:33:03.712Z,1003.69
2019-05-18T06:34:03.746Z,1003.72
2019-05-18T06:35:03.683Z,1003.79
2019-05-18T06:36:03.684Z,1003.74
2019-05-18T06:37:03.692Z,1003.68
2019-05-18T06:38:03.667Z,1003.66
2019-05-18T06:39:03.646Z,1003.68
2019-05-18T06:40:03.636Z,1003.72
2019-05-18T06:41:03.634Z,1003.75
2019-05-18T06:42:03.664Z,1003.72
2019-05-18T06:43:03.610Z,1003.74
2019-05-18T06:44:03.588Z,1003.75
2019-05-18T06:45:03.577Z,1003.77
2019-05-18T06:46:03.566Z,1003.77
2019-05-18T06:47:03.582Z,1003.71
2019-05-18T06:48:03.631Z,1003.68
2019-05-18T06:49:03.542Z,1003.70
2019-05-18T06:50:03.533Z,1003.73
2019-05-18T06:51:07.322Z,1003.73
2019-05-18T06:52:03.540Z,1003.70
2019-05-18T06:53:03.497Z,1003.70
2019-05-18T06:54:03.489Z,1003.68
2019-05-18T06:55:03.485Z,1003.67
2019-05-18T06:56:03.521Z,1003.59
2019-05-18T06:57:03.585Z,1003.60
2019-05-18T06:58:03.452Z,1003.62
2019-05-18T06:59:03.534Z,1003.67
2019-05-18T07:00:03.500Z,1003.64
2019-05-18T07:01:03.411Z,1003.65
2019-05-18T07:02:03.423Z,1003.67
2019-05-18T07:03:03.390Z,1003.67
2019-05-18T07:04:03.376Z,1003.67
2019-05-18T07:05:03.366Z,1003.68
2019-05-18T07:06:03.354Z,1003.69
2019-05-18T07:07:03.377Z,1003.70
2019-05-18T07:08:03.335Z,1003.75
2019-05-18T07:09:03.388Z,1003.71
2019-05-18T07:10:03.320Z,1003.77
2019-05-18T07:11:03.314Z,1003.78
2019-05-18T07:12:03.319Z,1003.69
2019-05-18T07:13:03.285Z,1003.67
2019-05-18T07:14:03.270Z,1003.68
2019-05-18T07:15:03.355Z,1003.66
2019-05-18T07:16:03.339Z,1003.66
2019-05-18T07:17:03.265Z,1003.70
2019-05-18T07:18:03.228Z,1003.73
2019-05-18T07:19:03.229Z,1003.69
2019-05-18T07:20:03.303Z,1003.73
2019-05-18T07:21:03.204Z,1003.83
2019-05-18T07:22:03.570Z,1003.97
2019-05-18T07:23:03.199Z,1004.03
2019-05-18T07:24:03.201Z,1003.96
2019-05-18T07:25:03.159Z,1004.02
2019-05-18T07:26:03.258Z,1003.99
2019-05-18T07:27:03.131Z,1004.02
2019-05-18T07:28:03.150Z,1004.05
2019-05-18T07:29:05.642Z,1004.03
2019-05-18T07:30:03.099Z,1004.02
2019-05-18T07:31:03.106Z,1004.05
2019-05-18T07:32:03.159Z,1004.08
2019-05-18T07:33:03.179Z,1004.07
2019-05-18T07:34:03.060Z,1004.10
2019-05-18T07:35:03.120Z,1004.09
2019-05-18T07:36:03.104Z,1004.05
2019-05-18T07:37:03.070Z,1003.89
2019-05-18T07:38:03.067Z,1003.70
2019-05-18T07:39:03.124Z,1003.66
2019-05-18T07:40:03.077Z,1003.68
2019-05-18T07:41:03.018Z,1003.84
2019-05-18T07:42:03.013Z,1004.03
2019-05-18T07:43:03.095Z,1004.05
2019-05-18T07:44:03.014Z,1004.13
2019-05-18T07:45:03.020Z,1004.12
2019-05-18T07:46:03.034Z,1004.13
2019-05-18T07:47:02.944Z,1004.17
2019-05-18T07:48:03.039Z,1004.19
2019-05-18T07:49:02.959Z,1004.15
2019-05-18T07:50:02.978Z,1004.17
2019-05-18T07:51:02.937Z,1004.21
2019-05-18T07:52:02.951Z,1004.09
2019-05-18T07:53:02.987Z,1004.10
2019-05-18T07:54:02.937Z,1004.16
2019-05-18T07:55:02.910Z,1004.15
2019-05-18T07:56:02.909Z,1004.18
2019-05-18T07:57:02.874Z,1004.21
2019-05-18T07:58:02.870Z,1004.10
2019-05-18T07:59:02.922Z,1004.15
2019-05-18T08:00:02.868Z,1004.11
2019-05-18T08:01:02.856Z,1004.11
2019-05-18T08:02:02.792Z,1004.06
2019-05-18T08:03:03.440Z,1004.04
2019-05-18T08:04:02.944Z,1004.03
2019-05-18T08:05:02.812Z,1004.08
2019-05-18T08:06:02.840Z,1004.04
2019-05-18T08:07:02.765Z,1004.10
2019-05-18T08:08:02.792Z,1004.09
2019-05-18T08:09:02.818Z,1004.10
2019-05-18T08:10:02.793Z,1004.08
2019-05-18T08:11:02.727Z,1004.05
2019-05-18T08:12:02.772Z,1004.07
2019-05-18T08:13:02.703Z,1004.11
2019-05-18T08:14:02.751Z,1004.07
2019-05-18T08:15:02.688Z,1004.11
2019-05-18T08:16:02.728Z,1004.04
2019-05-18T08:17:02.683Z,1004.13
2019-05-18T08:18:02.718Z,1004.09
2019-05-18T08:19:02.710Z,1004.06
2019-05-18T08:20:02.616Z,1004.15
2019-05-18T08:21:02.610Z,1004.06
2019-05-18T08:22:02.601Z,1004.08
2019-05-18T08:23:02.590Z,1004.18
2019-05-18T08:24:02.639Z,1004.16
2019-05-18T08:25:02.580Z,1004.13
2019-05-18T08:26:02.570Z,1004.13
2019-05-18T08:27:02.677Z,1004.16
2019-05-18T08:28:02.547Z,1004.10
2019-05-18T08:29:02.545Z,1004.16
2019-05-18T08:30:02.570Z,1004.15
2019-05-18T08:31:02.535Z,1004.15
2019-05-18T08:32:02.512Z,1004.05
2019-05-18T08:33:02.513Z,1004.08
2019-05-18T08:34:02.514Z,1004.11
2019-05-18T08:35:02.525Z,1004.05
2019-05-18T08:36:02.489Z,1004.01
2019-05-18T08:37:02.478Z,1004.03
2019-05-18T08:38:02.482Z,1004.07
2019-05-18T08:39:02.617Z,1004.00
2019-05-18T08:40:02.479Z,1004.07
2019-05-18T08:41:02.496Z,1004.08
2019-05-18T08:42:02.434Z,1004.10
2019-05-18T08:43:02.422Z,1004.09
2019-05-18T08:44:02.418Z,1004.10
2019-05-18T08:45:02.442Z,1003.98
2019-05-18T08:46:02.419Z,1003.98
2019-05-18T08:47:02.387Z,1003.93
2019-05-18T08:48:02.386Z,1003.87
2019-05-18T08:49:02.401Z,1003.95
2019-05-18T08:50:02.372Z,1003.89
2019-05-18T08:51:02.394Z,1003.85
2019-05-18T08:52:08.354Z,1003.86
2019-05-18T08:53:03.371Z,1003.89
2019-05-18T08:54:02.334Z,1003.85
2019-05-18T08:55:02.448Z,1003.84
2019-05-18T08:56:02.357Z,1003.92
2019-05-18T08:57:02.319Z,1003.87
2019-05-18T08:58:02.308Z,1003.85
2019-05-18T08:59:02.297Z,1003.82
2019-05-18T09:00:02.342Z,1003.85
2019-05-18T09:01:02.310Z,1003.84
2019-05-18T09:02:02.275Z,1003.90
2019-05-18T09:03:02.282Z,1003.89
2019-05-18T09:04:02.312Z,1003.83
2019-05-18T09:05:04.783Z,1003.85
2019-05-18T09:06:02.272Z,1003.79
2019-05-18T09:07:02.263Z,1003.80
2019-05-18T09:08:02.227Z,1003.89
2019-05-18T09:09:02.223Z,1003.91
2019-05-18T09:10:02.214Z,1003.87
2019-05-18T09:11:02.252Z,1003.85
2019-05-18T09:12:02.206Z,1003.84
2019-05-18T09:13:02.215Z,1003.80
2019-05-18T09:14:02.214Z,1003.81
2019-05-18T09:15:02.175Z,1003.80
2019-05-18T09:16:02.173Z,1003.78
2019-05-18T09:17:02.189Z,1003.81
2019-05-18T09:18:04.898Z,1003.77
2019-05-18T09:19:02.150Z,1003.74
2019-05-18T09:20:02.139Z,1003.72
2019-05-18T09:21:02.225Z,1003.70
2019-05-18T09:22:02.151Z,1003.71
2019-05-18T09:23:02.117Z,1003.61
2019-05-18T09:24:02.105Z,1003.62
2019-05-18T09:25:02.254Z,1003.66
2019-05-18T09:26:02.110Z,1003.67
2019-05-18T09:27:02.113Z,1003.60
2019-05-18T09:28:02.098Z,1003.54
2019-05-18T09:29:02.186Z,1003.57
2019-05-18T09:30:02.070Z,1003.64
2019-05-18T09:31:02.076Z,1003.63
2019-05-18T09:32:02.070Z,1003.62
2019-05-18T09:33:02.042Z,1003.62
2019-05-18T09:34:02.041Z,1003.63
2019-05-18T09:35:02.034Z,1003.63
2019-05-18T09:36:02.023Z,1003.60
2019-05-18T09:37:02.041Z,1003.59
2019-05-18T09:38:02.008Z,1003.66
2019-05-18T09:39:02.002Z,1003.53
2019-05-18T09:40:02.007Z,1003.60
2019-05-18T09:41:01.990Z,1003.57
2019-05-18T09:42:02.037Z,1003.59
2019-05-18T09:43:02.859Z,1003.55
2019-05-18T09:44:02.003Z,1003.56
2019-05-18T09:45:02.008Z,1003.70
2019-05-18T09:46:01.963Z,1003.56
2019-05-18T09:47:02.461Z,1003.61
2019-05-18T09:48:01.955Z,1003.63
2019-05-18T09:49:02.859Z,1003.57
2019-05-18T09:50:01.983Z,1003.53
2019-05-18T09:51:01.920Z,1003.48
2019-05-18T09:52:02.095Z,1003.44
2019-05-18T09:53:01.985Z,1003.46
2019-05-18T09:54:01.909Z,1003.48
2019-05-18T09:55:01.930Z,1003.45
2019-05-18T09:56:01.901Z,1003.42
2019-05-18T09:57:01.990Z,1003.43
2019-05-18T09:58:01.990Z,1003.46
2019-05-18T09:59:01.955Z,1003.47
2019-05-18T10:00:02.859Z,1003.46
2019-05-18T10:01:01.937Z,1003.42
2019-05-18T10:02:01.959Z,1003.43
2019-05-18T10:03:01.950Z,1003.41
2019-05-18T10:04:01.946Z,1003.44
2019-05-18T10:05:01.858Z,1003.47
2019-05-18T10:06:02.102Z,1003.46
2019-05-18T10:07:01.977Z,1003.42
2019-05-18T10:08:02.039Z,1003.39
2019-05-18T10:09:02.016Z,1003.44
2019-05-18T10:10:02.035Z,1003.45
2019-05-18T10:11:01.896Z,1003.39
2019-05-18T10:12:02.092Z,1003.39
2019-05-18T10:13:01.983Z,1003.40
2019-05-18T10:14:01.958Z,1003.40
2019-05-18T10:15:02.077Z,1003.44
2019-05-18T10:16:01.847Z,1002.79
2019-05-18T10:17:01.788Z,1003.45
2019-05-18T10:18:01.785Z,1003.27
2019-05-18T10:19:01.755Z,1002.46
2019-05-18T10:20:16.417Z,1002.48
2019-05-18T10:21:01.740Z,1003.24
2019-05-18T10:22:01.737Z,1002.46
2019-05-18T10:23:12.326Z,1003.30
2019-05-18T10:24:02.772Z,1003.19
2019-05-18T10:25:01.717Z,1003.19
2019-05-18T10:26:01.700Z,1003.00
2019-05-18T10:27:01.697Z,1002.93
2019-05-18T10:28:01.728Z,1002.48
2019-05-18T10:29:01.677Z,1002.47
2019-05-18T10:30:01.683Z,1002.44
2019-05-18T10:31:01.697Z,1002.40
2019-05-18T10:32:01.665Z,1002.45
2019-05-18T10:33:01.745Z,1002.54
2019-05-18T10:34:01.636Z,1002.25
2019-05-18T10:35:01.627Z,1002.32
2019-05-18T10:36:01.642Z,1002.30
2019-05-18T10:37:01.652Z,1002.28
2019-05-18T10:38:01.685Z,1002.30
2019-05-18T10:39:01.593Z,1002.24
2019-05-18T10:40:01.582Z,1002.25
2019-05-18T10:41:02.469Z,1002.21
2019-05-18T10:42:01.573Z,1002.13
2019-05-18T10:43:01.642Z,1002.18
2019-05-18T10:44:01.588Z,1002.04
2019-05-18T10:45:01.573Z,1002.05
2019-05-18T10:46:02.421Z,1002.10
2019-05-18T10:47:01.591Z,1001.99
2019-05-18T10:48:01.628Z,1001.92
2019-05-18T10:49:01.500Z,1001.91
2019-05-18T10:50:01.558Z,1001.86
2019-05-18T10:51:01.483Z,1001.94
2019-05-18T10:52:01.481Z,1001.97
2019-05-18T10:53:01.484Z,1002.06
2019-05-18T10:54:01.460Z,1002.03
2019-05-18T10:55:01.540Z,1001.96
2019-05-18T10:56:01.480Z,1001.91
2019-05-18T10:57:01.425Z,1001.87
2019-05-18T10:58:01.416Z,1001.98
2019-05-18T10:59:01.397Z,1002.00
2019-05-18T11:00:01.437Z,1001.87
2019-05-18T11:01:01.381Z,1001.83
2019-05-18T11:02:01.372Z,1001.87
2019-05-18T11:03:01.362Z,1001.79
2019-05-18T11:04:01.357Z,1001.81
2019-05-18T11:05:01.423Z,1001.78
2019-05-18T11:06:01.356Z,1001.77
2019-05-18T11:07:01.324Z,1001.82
2019-05-18T11:08:01.318Z,1001.75
2019-05-18T11:09:01.329Z,1001.75
2019-05-18T11:10:01.296Z,1001.79
2019-05-18T11:11:01.320Z,1001.74
2019-05-18T11:12:01.284Z,1001.78
2019-05-18T11:13:01.310Z,1001.67
2019-05-18T11:14:01.247Z,1001.65
2019-05-18T11:15:01.448Z,1001.67
2019-05-18T11:16:01.226Z,1001.64
2019-05-18T11:17:01.218Z,1001.66
2019-05-18T11:18:01.202Z,1001.67
2019-05-18T11:19:01.222Z,1001.59
2019-05-18T11:20:01.182Z,1001.66
2019-05-18T11:21:01.222Z,1001.77
2019-05-18T11:22:01.192Z,1001.81
2019-05-18T11:23:01.154Z,1001.70
2019-05-18T11:24:01.166Z,1001.77
2019-05-18T11:25:01.126Z,1001.67
2019-05-18T11:26:01.142Z,1001.76
2019-05-18T11:27:01.286Z,1001.73
2019-05-18T11:28:01.103Z,1001.63
2019-05-18T11:29:01.095Z,1001.68
2019-05-18T11:30:01.198Z,1001.81
2019-05-18T11:31:01.062Z,1001.73
2019-05-18T11:32:01.314Z,1001.73
2019-05-18T11:33:01.125Z,1001.66
2019-05-18T11:34:01.050Z,1001.66
2019-05-18T11:35:01.031Z,1001.70
2019-05-18T11:36:01.019Z,1001.64
2019-05-18T11:37:03.265Z,1001.62
2019-05-18T11:38:01.042Z,1001.60
2019-05-18T11:39:00.998Z,1001.61
2019-05-18T11:40:02.118Z,1001.58
2019-05-18T11:41:00.966Z,1001.62
2019-05-18T11:42:00.962Z,1001.64
2019-05-18T11:43:00.972Z,1001.60
2019-05-18T11:44:00.931Z,1001.49
2019-05-18T11:45:00.955Z,1001.56
2019-05-18T11:46:00.975Z,1001.54
2019-05-18T11:47:00.912Z,1001.50
2019-05-18T11:48:01.024Z,1001.49
2019-05-18T11:49:00.882Z,1001.52
2019-05-18T11:50:00.869Z,1001.56
2019-05-18T11:51:00.884Z,1001.52
2019-05-18T11:52:00.847Z,1001.60
2019-05-18T11:53:00.845Z,1001.54
2019-05-18T11:54:00.862Z,1001.54
2019-05-18T11:55:00.862Z,1001.55
2019-05-18T11:56:00.804Z,1001.50
2019-05-18T11:57:00.826Z,1001.44
2019-05-18T11:58:00.792Z,1001.49
2019-05-18T11:59:00.779Z,1001.48
2019-05-18T12:00:00.804Z,1001.48
2019-05-18T12:01:00.798Z,1001.60
2019-05-18T12:02:00.754Z,1001.59
2019-05-18T12:03:00.746Z,1001.44
2019-05-18T12:04:00.719Z,1001.40
2019-05-18T12:05:00.834Z,1001.44